sensor_id;sensor_type;location;lat;lon;timestamp;P1;durP1;ratioP1;P2;durP2;ratioP2
78458;SDS011;67753;42.684;23.330;2023-03-11T00:00:53;18.70;;;17.10;;
78458;SDS011;67753;42.684;23.330;2023-03-11T00:02:56;16.87;;;15.50;;
78458;SDS011;67753;42.684;23.330;2023-03-11T00:05:00;10.80;;;9.90;;
78458;SDS011;67753;42.684;23.330;2023-03-11T00:07:04;8.67;;;7.97;;
78458;SDS011;67753;42.684;23.330;2023-03-11T00:09:08;7.47;;;6.77;;
78458;SDS011;67753;42.684;23.330;2023-03-11T00:11:11;9.90;;;7.43;;
78458;SDS011;67753;42.684;23.330;2023-03-11T00:13:14;5.30;;;4.80;;
78458;SDS011;67753;42.684;23.330;2023-03-11T00:15:16;4.07;;;3.00;;
78458;SDS011;67753;42.684;23.330;2023-03-11T00:19:21;30.45;;;4.35;;
78458;SDS011;67753;42.684;23.330;2023-03-11T00:21:23;5.40;;;2.20;;
78458;SDS011;67753;42.684;23.330;2023-03-11T00:23:25;2.33;;;2.13;;
78458;SDS011;67753;42.684;23.330;2023-03-11T00:25:33;3.23;;;2.47;;
78458;SDS011;67753;42.684;23.330;2023-03-11T00:27:36;1.93;;;1.77;;
78458;SDS011;67753;42.684;23.330;2023-03-11T00:29:38;3.70;;;1.57;;
78458;SDS011;67753;42.684;23.330;2023-03-11T00:31:40;2.57;;;1.43;;
78458;SDS011;67753;42.684;23.330;2023-03-11T00:33:42;2.13;;;1.40;;
78458;SDS011;67753;42.684;23.330;2023-03-11T00:35:44;2.53;;;1.57;;
78458;SDS011;67753;42.684;23.330;2023-03-11T00:37:46;1.40;;;1.30;;
78458;SDS011;67753;42.684;23.330;2023-03-11T00:39:49;1.37;;;1.27;;
78458;SDS011;67753;42.684;23.330;2023-03-11T00:41:52;1.20;;;1.20;;
78458;SDS011;67753;42.684;23.330;2023-03-11T00:43:55;1.40;;;1.30;;
78458;SDS011;67753;42.684;23.330;2023-03-11T00:45:57;2.17;;;1.40;;
78458;SDS011;67753;42.684;23.330;2023-03-11T00:47:59;1.53;;;1.40;;
78458;SDS011;67753;42.684;23.330;2023-03-11T00:50:01;2.20;;;1.67;;
78458;SDS011;67753;42.684;23.330;2023-03-11T00:52:03;1.80;;;1.70;;
78458;SDS011;67753;42.684;23.330;2023-03-11T00:54:06;2.03;;;1.70;;
78458;SDS011;67753;42.684;23.330;2023-03-11T00:56:09;3.63;;;2.43;;
78458;SDS011;67753;42.684;23.330;2023-03-11T00:58:12;1.57;;;1.47;;
78458;SDS011;67753;42.684;23.330;2023-03-11T01:00:15;1.90;;;1.50;;
78458;SDS011;67753;42.684;23.330;2023-03-11T01:02:19;3.33;;;1.90;;
78458;SDS011;67753;42.684;23.330;2023-03-11T01:04:21;1.53;;;1.43;;
78458;SDS011;67753;42.684;23.330;2023-03-11T01:06:23;2.27;;;2.07;;
78458;SDS011;67753;42.684;23.330;2023-03-11T01:08:26;5.00;;;4.60;;
78458;SDS011;67753;42.684;23.330;2023-03-11T01:10:29;5.40;;;4.53;;
78458;SDS011;67753;42.684;23.330;2023-03-11T01:12:32;4.77;;;3.47;;
78458;SDS011;67753;42.684;23.330;2023-03-11T01:14:35;3.23;;;2.93;;
78458;SDS011;67753;42.684;23.330;2023-03-11T01:16:37;3.90;;;3.60;;
78458;SDS011;67753;42.684;23.330;2023-03-11T01:18:39;4.10;;;3.80;;
78458;SDS011;67753;42.684;23.330;2023-03-11T01:20:41;3.60;;;3.30;;
78458;SDS011;67753;42.684;23.330;2023-03-11T01:22:43;1.73;;;1.63;;
78458;SDS011;67753;42.684;23.330;2023-03-11T01:24:45;3.17;;;2.83;;
78458;SDS011;67753;42.684;23.330;2023-03-11T01:26:47;7.47;;;4.63;;
78458;SDS011;67753;42.684;23.330;2023-03-11T01:28:49;5.87;;;4.10;;
78458;SDS011;67753;42.684;23.330;2023-03-11T01:30:52;2.80;;;2.53;;
78458;SDS011;67753;42.684;23.330;2023-03-11T01:32:55;3.43;;;3.13;;
78458;SDS011;67753;42.684;23.330;2023-03-11T01:34:57;4.50;;;3.73;;
78458;SDS011;67753;42.684;23.330;2023-03-11T01:36:59;3.40;;;3.10;;
78458;SDS011;67753;42.684;23.330;2023-03-11T01:39:02;3.10;;;2.90;;
78458;SDS011;67753;42.684;23.330;2023-03-11T01:41:04;3.40;;;3.07;;
78458;SDS011;67753;42.684;23.330;2023-03-11T01:48:09;5.30;;;2.90;;
78458;SDS011;67753;42.684;23.330;2023-03-11T01:50:11;3.30;;;3.00;;
78458;SDS011;67753;42.684;23.330;2023-03-11T01:52:14;3.90;;;3.60;;
78458;SDS011;67753;42.684;23.330;2023-03-11T01:54:17;4.33;;;4.00;;
78458;SDS011;67753;42.684;23.330;2023-03-11T01:56:22;3.50;;;3.20;;
78458;SDS011;67753;42.684;23.330;2023-03-11T01:58:25;3.97;;;3.63;;
78458;SDS011;67753;42.684;23.330;2023-03-11T02:00:32;6.10;;;5.50;;
78458;SDS011;67753;42.684;23.330;2023-03-11T02:02:39;6.27;;;5.73;;
78458;SDS011;67753;42.684;23.330;2023-03-11T02:04:43;6.83;;;6.23;;
78458;SDS011;67753;42.684;23.330;2023-03-11T02:06:45;5.40;;;4.93;;
78458;SDS011;67753;42.684;23.330;2023-03-11T02:08:47;6.40;;;5.80;;
78458;SDS011;67753;42.684;23.330;2023-03-11T02:10:50;6.00;;;5.50;;
78458;SDS011;67753;42.684;23.330;2023-03-11T02:12:54;7.33;;;6.30;;
78458;SDS011;67753;42.684;23.330;2023-03-11T02:14:57;6.80;;;6.20;;
78458;SDS011;67753;42.684;23.330;2023-03-11T02:16:59;7.23;;;6.53;;
78458;SDS011;67753;42.684;23.330;2023-03-11T02:19:09;8.87;;;7.97;;
78458;SDS011;67753;42.684;23.330;2023-03-11T02:21:19;6.97;;;6.33;;
78458;SDS011;67753;42.684;23.330;2023-03-11T02:23:27;6.77;;;6.17;;
78458;SDS011;67753;42.684;23.330;2023-03-11T02:25:35;6.40;;;5.77;;
78458;SDS011;67753;42.684;23.330;2023-03-11T02:27:44;6.47;;;5.87;;
78458;SDS011;67753;42.684;23.330;2023-03-11T02:29:48;6.17;;;5.60;;
78458;SDS011;67753;42.684;23.330;2023-03-11T02:31:53;7.63;;;6.93;;
78458;SDS011;67753;42.684;23.330;2023-03-11T02:33:56;4.30;;;4.00;;
78458;SDS011;67753;42.684;23.330;2023-03-11T02:36:00;3.93;;;3.63;;
78458;SDS011;67753;42.684;23.330;2023-03-11T02:38:01;6.37;;;4.47;;
78458;SDS011;67753;42.684;23.330;2023-03-11T02:42:41;4.97;;;4.57;;
78458;SDS011;67753;42.684;23.330;2023-03-11T02:44:45;5.23;;;3.80;;
78458;SDS011;67753;42.684;23.330;2023-03-11T02:46:55;2.77;;;2.57;;
78458;SDS011;67753;42.684;23.330;2023-03-11T02:48:57;2.67;;;2.50;;
78458;SDS011;67753;42.684;23.330;2023-03-11T02:51:00;3.17;;;2.97;;
78458;SDS011;67753;42.684;23.330;2023-03-11T02:53:02;2.50;;;2.30;;
78458;SDS011;67753;42.684;23.330;2023-03-11T02:55:05;2.63;;;2.30;;
78458;SDS011;67753;42.684;23.330;2023-03-11T02:57:09;2.10;;;1.60;;
78458;SDS011;67753;42.684;23.330;2023-03-11T02:59:12;1.80;;;1.70;;
78458;SDS011;67753;42.684;23.330;2023-03-11T03:01:13;1.63;;;1.57;;
78458;SDS011;67753;42.684;23.330;2023-03-11T03:03:15;1.67;;;1.57;;
78458;SDS011;67753;42.684;23.330;2023-03-11T03:05:17;1.70;;;1.60;;
78458;SDS011;67753;42.684;23.330;2023-03-11T03:07:20;1.80;;;1.70;;
78458;SDS011;67753;42.684;23.330;2023-03-11T03:09:22;1.57;;;1.47;;
78458;SDS011;67753;42.684;23.330;2023-03-11T03:11:24;1.77;;;1.40;;
78458;SDS011;67753;42.684;23.330;2023-03-11T03:13:26;1.43;;;1.20;;
78458;SDS011;67753;42.684;23.330;2023-03-11T03:15:29;1.57;;;1.40;;
78458;SDS011;67753;42.684;23.330;2023-03-11T03:17:31;1.53;;;1.43;;
78458;SDS011;67753;42.684;23.330;2023-03-11T03:19:33;3.20;;;1.87;;
78458;SDS011;67753;42.684;23.330;2023-03-11T03:21:35;3.33;;;3.13;;
78458;SDS011;67753;42.684;23.330;2023-03-11T03:23:38;6.20;;;5.60;;
78458;SDS011;67753;42.684;23.330;2023-03-11T03:25:40;7.53;;;6.83;;
78458;SDS011;67753;42.684;23.330;2023-03-11T03:27:42;8.50;;;7.80;;
78458;SDS011;67753;42.684;23.330;2023-03-11T03:29:44;10.53;;;9.63;;
78458;SDS011;67753;42.684;23.330;2023-03-11T03:31:48;8.50;;;7.80;;
78458;SDS011;67753;42.684;23.330;2023-03-11T03:33:49;7.17;;;6.57;;
78458;SDS011;67753;42.684;23.330;2023-03-11T03:35:51;6.60;;;6.10;;
78458;SDS011;67753;42.684;23.330;2023-03-11T03:37:53;8.07;;;7.37;;
78458;SDS011;67753;42.684;23.330;2023-03-11T03:39:55;2.40;;;1.60;;
78458;SDS011;67753;42.684;23.330;2023-03-11T03:41:57;1.20;;;1.20;;
78458;SDS011;67753;42.684;23.330;2023-03-11T03:43:59;1.20;;;1.10;;
78458;SDS011;67753;42.684;23.330;2023-03-11T03:46:02;2.13;;;2.03;;
78458;SDS011;67753;42.684;23.330;2023-03-11T03:48:07;6.17;;;5.63;;
78458;SDS011;67753;42.684;23.330;2023-03-11T03:50:10;6.47;;;5.97;;
78458;SDS011;67753;42.684;23.330;2023-03-11T03:52:12;8.20;;;7.50;;
78458;SDS011;67753;42.684;23.330;2023-03-11T03:54:15;7.03;;;6.50;;
78458;SDS011;67753;42.684;23.330;2023-03-11T03:56:17;7.87;;;7.27;;
78458;SDS011;67753;42.684;23.330;2023-03-11T03:58:19;4.93;;;4.53;;
78458;SDS011;67753;42.684;23.330;2023-03-11T04:00:21;5.40;;;5.00;;
78458;SDS011;67753;42.684;23.330;2023-03-11T04:02:23;4.43;;;4.03;;
78458;SDS011;67753;42.684;23.330;2023-03-11T04:04:26;3.63;;;3.33;;
78458;SDS011;67753;42.684;23.330;2023-03-11T04:06:28;4.27;;;3.97;;
78458;SDS011;67753;42.684;23.330;2023-03-11T04:08:29;1.77;;;1.67;;
78458;SDS011;67753;42.684;23.330;2023-03-11T04:10:31;1.93;;;1.83;;
78458;SDS011;67753;42.684;23.330;2023-03-11T04:12:33;1.53;;;1.43;;
78458;SDS011;67753;42.684;23.330;2023-03-11T04:14:35;1.40;;;1.30;;
78458;SDS011;67753;42.684;23.330;2023-03-11T04:16:37;1.23;;;1.13;;
78458;SDS011;67753;42.684;23.330;2023-03-11T04:18:39;1.10;;;1.10;;
78458;SDS011;67753;42.684;23.330;2023-03-11T04:20:42;1.00;;;1.00;;
78458;SDS011;67753;42.684;23.330;2023-03-11T04:22:44;1.00;;;1.00;;
78458;SDS011;67753;42.684;23.330;2023-03-11T04:24:46;1.53;;;1.00;;
78458;SDS011;67753;42.684;23.330;2023-03-11T04:26:47;1.07;;;1.00;;
78458;SDS011;67753;42.684;23.330;2023-03-11T04:28:52;0.83;;;0.83;;
78458;SDS011;67753;42.684;23.330;2023-03-11T04:30:54;1.17;;;1.07;;
78458;SDS011;67753;42.684;23.330;2023-03-11T04:32:55;1.00;;;1.00;;
78458;SDS011;67753;42.684;23.330;2023-03-11T04:34:57;1.10;;;1.10;;
78458;SDS011;67753;42.684;23.330;2023-03-11T04:37:00;0.80;;;0.80;;
78458;SDS011;67753;42.684;23.330;2023-03-11T04:39:02;0.90;;;0.90;;
78458;SDS011;67753;42.684;23.330;2023-03-11T04:41:05;3.03;;;2.73;;
78458;SDS011;67753;42.684;23.330;2023-03-11T04:43:07;1.70;;;1.30;;
78458;SDS011;67753;42.684;23.330;2023-03-11T04:45:10;1.53;;;1.00;;
78458;SDS011;67753;42.684;23.330;2023-03-11T04:47:12;1.10;;;1.10;;
78458;SDS011;67753;42.684;23.330;2023-03-11T04:49:14;1.60;;;0.90;;
78458;SDS011;67753;42.684;23.330;2023-03-11T04:51:16;1.00;;;0.90;;
78458;SDS011;67753;42.684;23.330;2023-03-11T04:53:20;1.00;;;1.00;;
78458;SDS011;67753;42.684;23.330;2023-03-11T04:55:21;1.07;;;1.07;;
78458;SDS011;67753;42.684;23.330;2023-03-11T04:57:23;0.90;;;0.90;;
78458;SDS011;67753;42.684;23.330;2023-03-11T04:59:25;0.90;;;0.90;;
78458;SDS011;67753;42.684;23.330;2023-03-11T05:01:27;0.80;;;0.80;;
78458;SDS011;67753;42.684;23.330;2023-03-11T05:03:29;0.90;;;0.90;;
78458;SDS011;67753;42.684;23.330;2023-03-11T05:05:31;0.90;;;0.90;;
78458;SDS011;67753;42.684;23.330;2023-03-11T05:07:32;2.10;;;1.07;;
78458;SDS011;67753;42.684;23.330;2023-03-11T05:09:36;0.97;;;0.97;;
78458;SDS011;67753;42.684;23.330;2023-03-11T05:11:38;1.00;;;1.00;;
78458;SDS011;67753;42.684;23.330;2023-03-11T05:13:39;1.00;;;1.00;;
78458;SDS011;67753;42.684;23.330;2023-03-11T05:15:43;3.13;;;1.07;;
78458;SDS011;67753;42.684;23.330;2023-03-11T05:17:46;1.00;;;1.00;;
78458;SDS011;67753;42.684;23.330;2023-03-11T05:19:48;1.00;;;1.00;;
78458;SDS011;67753;42.684;23.330;2023-03-11T05:21:50;1.97;;;1.10;;
78458;SDS011;67753;42.684;23.330;2023-03-11T05:23:53;1.30;;;1.20;;
78458;SDS011;67753;42.684;23.330;2023-03-11T05:25:56;1.90;;;1.17;;
78458;SDS011;67753;42.684;23.330;2023-03-11T05:27:58;1.10;;;1.00;;
78458;SDS011;67753;42.684;23.330;2023-03-11T05:30:01;2.10;;;1.00;;
78458;SDS011;67753;42.684;23.330;2023-03-11T05:32:04;2.00;;;1.33;;
78458;SDS011;67753;42.684;23.330;2023-03-11T05:34:06;1.00;;;1.00;;
78458;SDS011;67753;42.684;23.330;2023-03-11T05:36:08;0.97;;;0.97;;
78458;SDS011;67753;42.684;23.330;2023-03-11T05:38:11;1.17;;;1.10;;
78458;SDS011;67753;42.684;23.330;2023-03-11T05:40:13;0.90;;;0.90;;
78458;SDS011;67753;42.684;23.330;2023-03-11T05:42:17;1.30;;;1.20;;
78458;SDS011;67753;42.684;23.330;2023-03-11T05:44:19;1.03;;;1.00;;
78458;SDS011;67753;42.684;23.330;2023-03-11T05:46:21;0.90;;;0.90;;
78458;SDS011;67753;42.684;23.330;2023-03-11T05:48:23;0.93;;;0.93;;
78458;SDS011;67753;42.684;23.330;2023-03-11T05:50:24;1.67;;;1.23;;
78458;SDS011;67753;42.684;23.330;2023-03-11T05:52:26;1.30;;;1.20;;
78458;SDS011;67753;42.684;23.330;2023-03-11T05:54:29;1.37;;;1.10;;
78458;SDS011;67753;42.684;23.330;2023-03-11T05:56:31;1.27;;;1.00;;
78458;SDS011;67753;42.684;23.330;2023-03-11T05:58:34;2.00;;;1.23;;
78458;SDS011;67753;42.684;23.330;2023-03-11T06:00:36;1.30;;;1.20;;
78458;SDS011;67753;42.684;23.330;2023-03-11T06:02:38;1.27;;;1.17;;
78458;SDS011;67753;42.684;23.330;2023-03-11T06:04:41;1.30;;;1.20;;
78458;SDS011;67753;42.684;23.330;2023-03-11T06:06:42;1.20;;;1.20;;
78458;SDS011;67753;42.684;23.330;2023-03-11T06:08:44;1.07;;;1.00;;
78458;SDS011;67753;42.684;23.330;2023-03-11T06:10:48;1.00;;;1.00;;
78458;SDS011;67753;42.684;23.330;2023-03-11T06:12:50;1.33;;;1.27;;
78458;SDS011;67753;42.684;23.330;2023-03-11T06:14:54;1.37;;;1.27;;
78458;SDS011;67753;42.684;23.330;2023-03-11T06:16:56;1.30;;;1.20;;
78458;SDS011;67753;42.684;23.330;2023-03-11T06:18:58;1.13;;;1.10;;
78458;SDS011;67753;42.684;23.330;2023-03-11T06:21:01;1.30;;;1.30;;
78458;SDS011;67753;42.684;23.330;2023-03-11T06:23:04;1.13;;;1.03;;
78458;SDS011;67753;42.684;23.330;2023-03-11T06:25:06;1.30;;;1.20;;
78458;SDS011;67753;42.684;23.330;2023-03-11T06:27:08;1.20;;;1.20;;
78458;SDS011;67753;42.684;23.330;2023-03-11T06:29:11;1.23;;;1.13;;
78458;SDS011;67753;42.684;23.330;2023-03-11T06:31:16;1.10;;;1.10;;
78458;SDS011;67753;42.684;23.330;2023-03-11T06:33:21;1.73;;;1.60;;
78458;SDS011;67753;42.684;23.330;2023-03-11T06:35:22;1.33;;;1.23;;
78458;SDS011;67753;42.684;23.330;2023-03-11T06:37:24;1.87;;;1.30;;
78458;SDS011;67753;42.684;23.330;2023-03-11T06:39:26;3.37;;;1.63;;
78458;SDS011;67753;42.684;23.330;2023-03-11T06:41:28;1.60;;;1.50;;
78458;SDS011;67753;42.684;23.330;2023-03-11T06:43:33;1.70;;;1.60;;
78458;SDS011;67753;42.684;23.330;2023-03-11T06:45:36;1.77;;;1.67;;
78458;SDS011;67753;42.684;23.330;2023-03-11T06:47:39;3.53;;;2.40;;
78458;SDS011;67753;42.684;23.330;2023-03-11T06:49:42;16.27;;;11.03;;
78458;SDS011;67753;42.684;23.330;2023-03-11T06:51:43;6.20;;;5.30;;
78458;SDS011;67753;42.684;23.330;2023-03-11T06:53:47;2.53;;;2.33;;
78458;SDS011;67753;42.684;23.330;2023-03-11T06:55:59;1.70;;;1.60;;
78458;SDS011;67753;42.684;23.330;2023-03-11T06:58:02;2.00;;;1.80;;
78458;SDS011;67753;42.684;23.330;2023-03-11T07:00:04;1.70;;;1.60;;
78458;SDS011;67753;42.684;23.330;2023-03-11T07:02:11;1.47;;;1.37;;
78458;SDS011;67753;42.684;23.330;2023-03-11T07:04:16;1.70;;;1.60;;
78458;SDS011;67753;42.684;23.330;2023-03-11T07:06:18;1.50;;;1.30;;
78458;SDS011;67753;42.684;23.330;2023-03-11T07:08:22;1.77;;;1.50;;
78458;SDS011;67753;42.684;23.330;2023-03-11T07:10:23;1.77;;;1.30;;
78458;SDS011;67753;42.684;23.330;2023-03-11T07:12:25;1.47;;;1.37;;
78458;SDS011;67753;42.684;23.330;2023-03-11T07:14:27;1.50;;;1.40;;
78458;SDS011;67753;42.684;23.330;2023-03-11T07:16:29;2.03;;;1.70;;
78458;SDS011;67753;42.684;23.330;2023-03-11T07:18:31;1.97;;;1.40;;
78458;SDS011;67753;42.684;23.330;2023-03-11T07:20:35;1.33;;;1.30;;
78458;SDS011;67753;42.684;23.330;2023-03-11T07:22:37;1.40;;;1.33;;
78458;SDS011;67753;42.684;23.330;2023-03-11T07:24:39;1.70;;;1.60;;
78458;SDS011;67753;42.684;23.330;2023-03-11T07:26:41;2.17;;;1.60;;
78458;SDS011;67753;42.684;23.330;2023-03-11T07:28:42;1.67;;;1.50;;
78458;SDS011;67753;42.684;23.330;2023-03-11T07:30:45;2.57;;;2.33;;
78458;SDS011;67753;42.684;23.330;2023-03-11T07:32:47;2.83;;;1.80;;
78458;SDS011;67753;42.684;23.330;2023-03-11T07:34:49;1.90;;;1.80;;
78458;SDS011;67753;42.684;23.330;2023-03-11T07:36:52;1.93;;;1.80;;
78458;SDS011;67753;42.684;23.330;2023-03-11T07:38:54;3.03;;;2.73;;
78458;SDS011;67753;42.684;23.330;2023-03-11T07:40:57;2.77;;;2.50;;
78458;SDS011;67753;42.684;23.330;2023-03-11T07:43:00;2.50;;;2.30;;
78458;SDS011;67753;42.684;23.330;2023-03-11T07:45:02;3.73;;;2.60;;
78458;SDS011;67753;42.684;23.330;2023-03-11T07:47:04;3.30;;;3.00;;
78458;SDS011;67753;42.684;23.330;2023-03-11T07:49:06;4.53;;;3.60;;
78458;SDS011;67753;42.684;23.330;2023-03-11T07:51:09;1.73;;;1.63;;
78458;SDS011;67753;42.684;23.330;2023-03-11T07:53:13;1.50;;;1.40;;
78458;SDS011;67753;42.684;23.330;2023-03-11T07:55:15;1.47;;;1.37;;
78458;SDS011;67753;42.684;23.330;2023-03-11T07:57:17;1.20;;;1.20;;
78458;SDS011;67753;42.684;23.330;2023-03-11T07:59:19;2.33;;;2.23;;
78458;SDS011;67753;42.684;23.330;2023-03-11T08:01:22;2.20;;;2.10;;
78458;SDS011;67753;42.684;23.330;2023-03-11T08:03:26;2.20;;;2.00;;
78458;SDS011;67753;42.684;23.330;2023-03-11T08:05:32;4.07;;;2.17;;
78458;SDS011;67753;42.684;23.330;2023-03-11T08:07:34;2.40;;;2.10;;
78458;SDS011;67753;42.684;23.330;2023-03-11T08:09:37;2.47;;;2.10;;
78458;SDS011;67753;42.684;23.330;2023-03-11T08:11:39;2.57;;;2.27;;
78458;SDS011;67753;42.684;23.330;2023-03-11T08:13:43;2.10;;;2.00;;
78458;SDS011;67753;42.684;23.330;2023-03-11T08:15:46;3.97;;;3.67;;
78458;SDS011;67753;42.684;23.330;2023-03-11T08:17:47;2.40;;;2.20;;
78458;SDS011;67753;42.684;23.330;2023-03-11T08:19:50;2.27;;;2.07;;
78458;SDS011;67753;42.684;23.330;2023-03-11T08:21:52;1.87;;;1.77;;
78458;SDS011;67753;42.684;23.330;2023-03-11T08:23:55;3.53;;;1.97;;
78458;SDS011;67753;42.684;23.330;2023-03-11T08:26:03;1.70;;;1.60;;
78458;SDS011;67753;42.684;23.330;2023-03-11T08:28:06;2.53;;;1.50;;
78458;SDS011;67753;42.684;23.330;2023-03-11T08:30:09;1.47;;;1.37;;
78458;SDS011;67753;42.684;23.330;2023-03-11T08:32:11;1.50;;;1.40;;
78458;SDS011;67753;42.684;23.330;2023-03-11T08:34:13;2.10;;;1.60;;
78458;SDS011;67753;42.684;23.330;2023-03-11T08:36:16;3.57;;;3.20;;
78458;SDS011;67753;42.684;23.330;2023-03-11T08:38:21;3.70;;;2.23;;
78458;SDS011;67753;42.684;23.330;2023-03-11T08:40:23;2.77;;;2.00;;
78458;SDS011;67753;42.684;23.330;2023-03-11T08:42:26;2.10;;;1.90;;
78458;SDS011;67753;42.684;23.330;2023-03-11T08:44:28;3.60;;;1.83;;
78458;SDS011;67753;42.684;23.330;2023-03-11T08:46:30;1.80;;;1.70;;
78458;SDS011;67753;42.684;23.330;2023-03-11T08:50:38;1.70;;;1.60;;
78458;SDS011;67753;42.684;23.330;2023-03-11T08:52:41;2.70;;;1.93;;
78458;SDS011;67753;42.684;23.330;2023-03-11T08:54:42;2.50;;;2.30;;
78458;SDS011;67753;42.684;23.330;2023-03-11T08:56:44;1.90;;;1.80;;
78458;SDS011;67753;42.684;23.330;2023-03-11T08:58:48;3.50;;;2.80;;
78458;SDS011;67753;42.684;23.330;2023-03-11T09:00:50;1.83;;;1.50;;
78458;SDS011;67753;42.684;23.330;2023-03-11T09:02:52;4.20;;;2.40;;
78458;SDS011;67753;42.684;23.330;2023-03-11T09:04:54;5.03;;;2.20;;
78458;SDS011;67753;42.684;23.330;2023-03-11T09:06:56;2.63;;;2.30;;
78458;SDS011;67753;42.684;23.330;2023-03-11T09:08:58;1.87;;;1.73;;
78458;SDS011;67753;42.684;23.330;2023-03-11T09:11:00;2.37;;;1.63;;
78458;SDS011;67753;42.684;23.330;2023-03-11T09:13:02;6.60;;;1.90;;
78458;SDS011;67753;42.684;23.330;2023-03-11T09:15:06;2.77;;;1.90;;
78458;SDS011;67753;42.684;23.330;2023-03-11T09:17:09;1.77;;;1.67;;
78458;SDS011;67753;42.684;23.330;2023-03-11T09:19:13;2.00;;;1.70;;
78458;SDS011;67753;42.684;23.330;2023-03-11T09:21:15;2.23;;;1.77;;
78458;SDS011;67753;42.684;23.330;2023-03-11T09:23:17;3.37;;;1.70;;
78458;SDS011;67753;42.684;23.330;2023-03-11T09:25:19;2.40;;;2.10;;
78458;SDS011;67753;42.684;23.330;2023-03-11T09:27:21;4.87;;;4.47;;
78458;SDS011;67753;42.684;23.330;2023-03-11T09:29:23;4.20;;;2.50;;
78458;SDS011;67753;42.684;23.330;2023-03-11T09:31:26;3.63;;;2.77;;
78458;SDS011;67753;42.684;23.330;2023-03-11T09:33:28;3.83;;;1.80;;
78458;SDS011;67753;42.684;23.330;2023-03-11T09:35:30;1.57;;;1.47;;
78458;SDS011;67753;42.684;23.330;2023-03-11T09:37:32;2.23;;;1.87;;
78458;SDS011;67753;42.684;23.330;2023-03-11T09:39:35;4.47;;;1.80;;
78458;SDS011;67753;42.684;23.330;2023-03-11T09:41:38;3.60;;;1.80;;
78458;SDS011;67753;42.684;23.330;2023-03-11T09:43:48;1.77;;;1.60;;
78458;SDS011;67753;42.684;23.330;2023-03-11T09:46:02;3.00;;;2.00;;
78458;SDS011;67753;42.684;23.330;2023-03-11T09:48:17;1.63;;;1.40;;
78458;SDS011;67753;42.684;23.330;2023-03-11T09:50:28;1.90;;;1.80;;
78458;SDS011;67753;42.684;23.330;2023-03-11T09:52:35;3.80;;;1.33;;
78458;SDS011;67753;42.684;23.330;2023-03-11T09:54:42;1.70;;;1.60;;
78458;SDS011;67753;42.684;23.330;2023-03-11T09:56:47;1.60;;;1.50;;
78458;SDS011;67753;42.684;23.330;2023-03-11T09:58:49;2.83;;;1.60;;
78458;SDS011;67753;42.684;23.330;2023-03-11T10:00:53;1.83;;;1.53;;
78458;SDS011;67753;42.684;23.330;2023-03-11T10:02:55;1.50;;;1.40;;
78458;SDS011;67753;42.684;23.330;2023-03-11T10:05:00;1.73;;;1.63;;
78458;SDS011;67753;42.684;23.330;2023-03-11T10:07:09;1.63;;;1.53;;
78458;SDS011;67753;42.684;23.330;2023-03-11T10:09:23;1.50;;;1.20;;
78458;SDS011;67753;42.684;23.330;2023-03-11T10:11:35;1.77;;;1.20;;
78458;SDS011;67753;42.684;23.330;2023-03-11T10:13:49;4.40;;;1.40;;
78458;SDS011;67753;42.684;23.330;2023-03-11T10:15:58;1.93;;;1.63;;
78458;SDS011;67753;42.684;23.330;2023-03-11T10:20:41;3.40;;;1.30;;
78458;SDS011;67753;42.684;23.330;2023-03-11T10:22:53;2.50;;;1.57;;
78458;SDS011;67753;42.684;23.330;2023-03-11T10:25:07;1.93;;;1.67;;
78458;SDS011;67753;42.684;23.330;2023-03-11T10:27:13;3.10;;;1.80;;
78458;SDS011;67753;42.684;23.330;2023-03-11T10:29:20;2.90;;;1.80;;
78458;SDS011;67753;42.684;23.330;2023-03-11T10:31:27;1.77;;;1.27;;
78458;SDS011;67753;42.684;23.330;2023-03-11T10:33:34;2.23;;;1.63;;
78458;SDS011;67753;42.684;23.330;2023-03-11T10:35:42;2.07;;;1.80;;
78458;SDS011;67753;42.684;23.330;2023-03-11T10:37:47;1.70;;;1.60;;
78458;SDS011;67753;42.684;23.330;2023-03-11T10:39:56;1.63;;;1.43;;
78458;SDS011;67753;42.684;23.330;2023-03-11T10:42:05;3.67;;;1.67;;
78458;SDS011;67753;42.684;23.330;2023-03-11T10:44:14;1.43;;;1.33;;
78458;SDS011;67753;42.684;23.330;2023-03-11T10:46:23;2.53;;;1.53;;
78458;SDS011;67753;42.684;23.330;2023-03-11T10:48:27;2.00;;;1.70;;
78458;SDS011;67753;42.684;23.330;2023-03-11T10:50:29;2.13;;;1.83;;
78458;SDS011;67753;42.684;23.330;2023-03-11T10:52:41;1.77;;;1.67;;
78458;SDS011;67753;42.684;23.330;2023-03-11T10:54:47;2.07;;;1.80;;
78458;SDS011;67753;42.684;23.330;2023-03-11T10:56:59;1.60;;;1.50;;
78458;SDS011;67753;42.684;23.330;2023-03-11T10:59:03;3.47;;;1.97;;
78458;SDS011;67753;42.684;23.330;2023-03-11T11:01:13;2.33;;;2.10;;
78458;SDS011;67753;42.684;23.330;2023-03-11T11:03:19;2.63;;;2.03;;
78458;SDS011;67753;42.684;23.330;2023-03-11T11:05:26;3.00;;;2.20;;
78458;SDS011;67753;42.684;23.330;2023-03-11T11:07:32;2.40;;;2.20;;
78458;SDS011;67753;42.684;23.330;2023-03-11T11:09:36;3.30;;;2.07;;
78458;SDS011;67753;42.684;23.330;2023-03-11T11:11:38;1.87;;;1.70;;
78458;SDS011;67753;42.684;23.330;2023-03-11T11:13:40;2.30;;;2.10;;
78458;SDS011;67753;42.684;23.330;2023-03-11T11:15:57;2.27;;;2.07;;
78458;SDS011;67753;42.684;23.330;2023-03-11T11:18:02;4.40;;;2.67;;
78458;SDS011;67753;42.684;23.330;2023-03-11T11:20:12;2.37;;;2.17;;
78458;SDS011;67753;42.684;23.330;2023-03-11T11:22:19;2.67;;;2.40;;
78458;SDS011;67753;42.684;23.330;2023-03-11T11:24:23;2.03;;;1.70;;
78458;SDS011;67753;42.684;23.330;2023-03-11T11:26:27;3.17;;;1.77;;
78458;SDS011;67753;42.684;23.330;2023-03-11T11:28:29;2.57;;;1.50;;
78458;SDS011;67753;42.684;23.330;2023-03-11T11:30:32;2.23;;;1.77;;
78458;SDS011;67753;42.684;23.330;2023-03-11T11:32:34;1.67;;;1.50;;
78458;SDS011;67753;42.684;23.330;2023-03-11T11:34:37;2.27;;;1.80;;
78458;SDS011;67753;42.684;23.330;2023-03-11T11:36:39;2.17;;;1.60;;
78458;SDS011;67753;42.684;23.330;2023-03-11T11:38:41;3.20;;;1.67;;
78458;SDS011;67753;42.684;23.330;2023-03-11T11:40:43;2.23;;;1.83;;
78458;SDS011;67753;42.684;23.330;2023-03-11T11:42:49;2.27;;;1.83;;
78458;SDS011;67753;42.684;23.330;2023-03-11T11:44:55;3.00;;;1.53;;
78458;SDS011;67753;42.684;23.330;2023-03-11T11:47:02;1.63;;;1.50;;
78458;SDS011;67753;42.684;23.330;2023-03-11T11:49:11;2.30;;;1.70;;
78458;SDS011;67753;42.684;23.330;2023-03-11T11:51:19;3.97;;;3.57;;
78458;SDS011;67753;42.684;23.330;2023-03-11T11:53:24;3.63;;;2.17;;
78458;SDS011;67753;42.684;23.330;2023-03-11T11:55:31;3.77;;;2.00;;
78458;SDS011;67753;42.684;23.330;2023-03-11T11:57:34;2.33;;;1.60;;
78458;SDS011;67753;42.684;23.330;2023-03-11T11:59:39;1.93;;;1.70;;
78458;SDS011;67753;42.684;23.330;2023-03-11T12:01:41;5.13;;;2.67;;
78458;SDS011;67753;42.684;23.330;2023-03-11T12:03:59;1.93;;;1.63;;
78458;SDS011;67753;42.684;23.330;2023-03-11T12:06:19;3.97;;;3.20;;
78458;SDS011;67753;42.684;23.330;2023-03-11T12:08:30;2.40;;;1.80;;
78458;SDS011;67753;42.684;23.330;2023-03-11T12:10:38;3.00;;;2.50;;
78458;SDS011;67753;42.684;23.330;2023-03-11T12:12:47;1.70;;;1.60;;
78458;SDS011;67753;42.684;23.330;2023-03-11T12:15:02;2.03;;;1.33;;
78458;SDS011;67753;42.684;23.330;2023-03-11T12:17:12;1.73;;;1.47;;
78458;SDS011;67753;42.684;23.330;2023-03-11T12:19:18;1.57;;;1.40;;
78458;SDS011;67753;42.684;23.330;2023-03-11T12:21:39;1.83;;;1.47;;
78458;SDS011;67753;42.684;23.330;2023-03-11T12:24:00;2.20;;;1.40;;
78458;SDS011;67753;42.684;23.330;2023-03-11T12:26:18;3.97;;;1.80;;
78458;SDS011;67753;42.684;23.330;2023-03-11T12:28:23;1.33;;;1.23;;